Ana Sayfa
METAR-TAF:

METAR-TAF

Havaalanları :

Wilmington, Delaware, Amerika Birleşik Devletleri

Enlem: 39-40-22N, Boylam: 075-36-03W, yükseklik: 24 m

Güncel hava durumu gözlemi

Rapor saat 16:51 UTC de 45 dakika önce yapıldı.
Rüzgar batı/kuzeybatıdan 9 kt
Sıcaklık 5°C
Nem 41%
Basınç 1023 hPa
Görüş mesafesi: 16.1 km
Açık gökyüzü

METAR: KILG 071651Z 29009KT 10SM CLR 05/M07 A3022 RMK AO2 SLP232 T00501067

Saat: 12:36 (17:36 UTC)

Tahmin

Rapor saat 11:20 UTC de 6 saat ve 16 dakika önce yapıldı.
Ayın 07'si saat 12 UTC'den ayın 08'si saat 12 UTC'ye kadar geçerli Tahmin
Rüzgar batıdan 8 kt
Görüş mesafesi: 10 km
15000 ft yükseklikte parçalı bulutlu
Ayın 07'si saat 2300 UTC'den
Rüzgar değişken yönden 3 kt
Görüş mesafesi: 10 km
10000 ft yükseklikte çok bulutlu

TAF: KILG 071120Z 0712/0812 28008KT P6SM SCT150 FM072300 VRB03KT P6SM OVC100

4.000'den fazla havaalanı için hava durumu gözlemleri ve tahminleri (METAR ve TAF raporları).

Kullanılabilir istasyonlar harita üzerinde sarı ve kırmızı noktalarla gösterilir.

İstasyonun adını görmek için fareyi noktanın üzerinde gezdirin.

Sonrasında hava gözlem ve tahminlerini görmek için tıklayın.

Haritayı değiştirmek için: yaklaştırmak için siyah artı işaretli yeşil düğmeye ve uzaklaştırmak için de eksi işaretli düğmeye hızla tıklayın; bitişik haritalar için yeşil okları kullanın.


METAR-TAF: